Time;durP1;ratioP1;P1;durP2;ratioP2;P2;SDS_P1;SDS_P2;PMS_P1;PMS_P2;Temp;Humidity;BMP_temperature;BMP_pressure;BME280_temperature;BME280_humidity;BME280_pressure;Samples;Min_cycle;Max_cycle;Signal;HPM_P1;HPM_P2
2021/03/22 00:00:29;;;;;;;18.63;10.93;;;;;;;0.79;100.00;96187.03;1024816;28;20085;-57
2021/03/22 00:01:03;;;;;;;19.73;11.30;;;;;;;0.79;100.00;96197.47;1028197;28;20030;-57
2021/03/22 00:01:34;;;;;;;23.48;11.85;;;;;;;0.77;100.00;96194.97;1020446;28;20027;-57
2021/03/22 00:02:05;;;;;;;18.60;10.57;;;;;;;0.76;100.00;96190.69;1032510;28;20018;-57
2021/03/22 00:02:36;;;;;;;19.58;10.95;;;;;;;0.78;100.00;96196.63;1032364;28;20028;-56
2021/03/22 00:03:07;;;;;;;21.15;11.02;;;;;;;0.81;100.00;96193.81;1028337;28;20023;-56
2021/03/22 00:03:38;;;;;;;19.67;10.15;;;;;;;0.82;100.00;96192.88;1036272;28;20072;-55
2021/03/22 00:04:08;;;;;;;21.45;11.55;;;;;;;0.84;100.00;96193.59;1032382;28;20022;-58
2021/03/22 00:04:39;;;;;;;19.90;11.02;;;;;;;0.80;100.00;96189.53;1020365;29;20030;-56
2021/03/22 00:05:11;;;;;;;24.40;11.23;;;;;;;0.75;100.00;96202.09;1024242;29;20031;-57
2021/03/22 00:05:41;;;;;;;18.25;11.57;;;;;;;0.70;100.00;96184.13;1024591;28;20371;-55
2021/03/22 00:06:12;;;;;;;24.13;11.63;;;;;;;0.78;100.00;96193.19;1024329;28;20123;-56
2021/03/22 00:06:45;;;;;;;21.27;10.90;;;;;;;0.77;100.00;96194.97;1028304;28;20018;-58
2021/03/22 00:07:15;;;;;;;25.10;11.60;;;;;;;0.79;100.00;96187.84;1028521;28;20030;-54
2021/03/22 00:07:46;;;;;;;21.27;11.85;;;;;;;0.75;100.00;96194.25;1028400;28;20019;-56
2021/03/22 00:08:18;;;;;;;18.00;10.93;;;;;;;0.78;100.00;96196.63;1032399;28;20099;-55
2021/03/22 00:08:48;;;;;;;18.17;11.63;;;;;;;0.82;100.00;96200.72;1028353;28;20014;-57
2021/03/22 00:09:26;;;;;;;19.13;12.02;;;;;;;0.75;100.00;96197.69;1024139;29;20110;-56
2021/03/22 00:09:57;;;;;;;22.10;11.43;;;;;;;0.79;100.00;96195.69;1024269;28;20159;-55
2021/03/22 00:10:29;;;;;;;18.70;10.73;;;;;;;0.82;100.00;96202.47;1020328;29;20164;-57
2021/03/22 00:11:00;;;;;;;20.33;11.88;;;;;;;0.73;100.00;96198.72;1028372;28;20015;-56
2021/03/22 00:11:31;;;;;;;21.88;11.18;;;;;;;0.74;100.00;96196.00;1024336;29;20022;-56
2021/03/22 00:12:01;;;;;;;18.10;10.88;;;;;;;0.75;100.00;96197.69;1020328;29;20090;-56
2021/03/22 00:12:32;;;;;;;20.98;11.98;;;;;;;0.78;100.00;96196.63;1024241;28;20102;-56
2021/03/22 00:13:03;;;;;;;24.02;11.10;;;;;;;0.81;100.00;96195.59;1028306;28;20021;-56
2021/03/22 00:13:34;;;;;;;18.45;10.88;;;;;;;0.81;100.00;96190.34;1027979;28;20019;-56
2021/03/22 00:14:05;;;;;;;22.38;12.00;;;;;;;0.82;100.00;96186.78;1024183;29;20015;-57
2021/03/22 00:14:35;;;;;;;20.83;12.13;;;;;;;0.83;100.00;96186.69;1028210;28;20504;-57
2021/03/22 00:15:07;;;;;;;24.58;12.07;;;;;;;0.85;100.00;96181.34;1032374;28;20029;-58
2021/03/22 00:15:39;;;;;;;22.98;12.23;;;;;;;0.85;100.00;96186.56;1032251;28;20130;-57
2021/03/22 00:16:10;;;;;;;21.25;12.32;;;;;;;0.84;100.00;96183.13;1032359;28;20042;-57
2021/03/22 00:16:40;;;;;;;18.90;11.40;;;;;;;0.85;100.00;96183.97;1028237;28;20173;-57
2021/03/22 00:17:11;;;;;;;21.48;11.52;;;;;;;0.83;100.00;96185.84;1028350;28;20051;-57
2021/03/22 00:17:42;;;;;;;21.15;12.45;;;;;;;0.84;100.00;96180.50;1028239;28;20073;-57
2021/03/22 00:18:16;;;;;;;20.92;11.48;;;;;;;0.83;100.00;96184.06;1036183;28;20013;-56
2021/03/22 00:18:47;;;;;;;22.42;12.23;;;;;;;0.84;100.00;96188.34;1032302;28;20025;-56
2021/03/22 00:19:17;;;;;;;21.73;12.07;;;;;;;0.82;100.00;96189.41;1024235;28;20046;-57
2021/03/22 00:19:48;;;;;;;20.35;11.95;;;;;;;0.78;100.00;96180.13;1028128;28;20021;-56
2021/03/22 00:20:19;;;;;;;21.75;11.02;;;;;;;0.81;100.00;96180.72;1028223;28;20018;-57
2021/03/22 00:20:51;;;;;;;21.88;11.52;;;;;;;0.84;100.00;96182.31;1028231;28;20519;-57
2021/03/22 00:21:22;;;;;;;22.05;11.07;;;;;;;0.80;100.00;96173.84;1028230;28;20023;-56
2021/03/22 00:21:52;;;;;;;23.42;11.15;;;;;;;0.85;100.00;96179.56;1036216;28;20018;-56
2021/03/22 00:22:23;;;;;;;20.25;11.38;;;;;;;0.85;100.00;96182.16;1032201;28;20514;-56
2021/03/22 00:22:54;;;;;;;19.73;11.65;;;;;;;0.84;100.00;96183.13;1032384;28;20018;-56
2021/03/22 00:23:25;;;;;;;22.92;11.82;;;;;;;0.80;100.00;96178.22;1028436;28;20026;-56
2021/03/22 00:23:55;;;;;;;19.05;11.43;;;;;;;0.83;100.00;96176.22;1028324;28;20110;-58
2021/03/22 00:24:26;;;;;;;22.20;11.65;;;;;;;0.84;100.00;96180.50;1028568;28;20501;-56
2021/03/22 00:24:57;;;;;;;24.33;11.73;;;;;;;0.82;100.00;96176.31;1028464;28;20026;-56
2021/03/22 00:25:28;;;;;;;19.98;11.45;;;;;;;0.85;100.00;96178.72;1020522;29;20031;-57
2021/03/22 00:25:59;;;;;;;22.88;11.25;;;;;;;0.84;100.00;96171.84;1028605;28;20023;-56
2021/03/22 00:26:30;;;;;;;22.75;11.38;;;;;;;0.80;100.00;96168.63;1028376;28;20026;-57
2021/03/22 00:27:01;;;;;;;24.17;12.35;;;;;;;0.81;100.00;96170.28;1028407;28;20050;-56
2021/03/22 00:27:31;;;;;;;28.65;11.82;;;;;;;0.79;100.00;96166.94;1032366;28;20500;-57
2021/03/22 00:28:02;;;;;;;20.33;10.95;;;;;;;0.81;100.00;96167.66;1028354;28;20027;-56
2021/03/22 00:28:38;;;;;;;21.08;12.50;;;;;;;0.81;100.00;96180.72;1028510;28;20264;-56
2021/03/22 00:29:09;;;;;;;22.25;11.88;;;;;;;0.79;100.00;96176.56;1024476;28;20050;-56
2021/03/22 00:29:40;;;;;;;19.75;11.18;;;;;;;0.79;100.00;96173.97;1028396;28;20166;-55
2021/03/22 00:30:15;;;;;;;20.25;11.27;;;;;;;0.80;100.00;96171.25;1025843;28;20019;-55
2021/03/22 00:30:46;;;;;;;24.77;12.25;;;;;;;0.81;100.00;96174.69;1035294;28;20023;-56
2021/03/22 00:31:16;;;;;;;22.55;11.77;;;;;;;0.79;100.00;96180.00;1031517;28;20019;-55
2021/03/22 00:31:47;;;;;;;24.15;13.55;;;;;;;0.74;100.00;96169.88;1035165;28;20014;-56
2021/03/22 00:32:18;;;;;;;23.60;11.50;;;;;;;0.77;100.00;96174.06;1027237;28;20012;-55
2021/03/22 00:32:49;;;;;;;17.27;11.13;;;;;;;0.77;100.00;96163.59;1031241;28;20469;-56
2021/03/22 00:33:20;;;;;;;20.40;11.85;;;;;;;0.80;100.00;96171.25;1035830;28;20018;-55
2021/03/22 00:33:51;;;;;;;23.42;11.85;;;;;;;0.78;100.00;96167.03;1040013;28;20094;-56
2021/03/22 00:34:22;;;;;;;19.42;11.50;;;;;;;0.74;100.00;96174.28;1031949;28;20029;-56
2021/03/22 00:34:52;;;;;;;23.08;12.43;;;;;;;0.67;100.00;96167.81;1035871;28;20100;-56
2021/03/22 00:35:23;;;;;;;24.80;11.60;;;;;;;0.69;100.00;96171.16;1031774;28;20023;-57
2021/03/22 00:35:54;;;;;;;22.65;12.25;;;;;;;0.70;100.00;96173.66;1019025;29;20047;-57
2021/03/22 00:36:25;;;;;;;23.90;12.05;;;;;;;0.68;100.00;96169.47;1032054;28;20010;-56
2021/03/22 00:36:55;;;;;;;27.38;12.32;;;;;;;0.72;100.00;96165.72;1024240;29;20023;-56
2021/03/22 00:37:26;;;;;;;20.83;11.70;;;;;;;0.76;100.00;96169.78;1028141;28;20025;-61
2021/03/22 00:37:57;;;;;;;25.42;11.93;;;;;;;0.72;100.00;96163.09;1028279;28;20440;-56
2021/03/22 00:38:28;;;;;;;22.75;11.93;;;;;;;0.73;100.00;96164.75;1032098;28;20060;-57
2021/03/22 00:38:58;;;;;;;20.40;11.57;;;;;;;0.70;100.00;96162.38;1032275;28;20014;-56
2021/03/22 00:39:29;;;;;;;24.30;12.02;;;;;;;0.71;100.00;96166.66;1024400;28;20110;-55
2021/03/22 00:40:00;;;;;;;21.58;12.02;;;;;;;0.67;100.00;96165.22;1028765;28;20019;-57
2021/03/22 00:40:33;;;;;;;22.55;12.32;;;;;;;0.70;100.00;96173.66;1032075;28;20018;-56
2021/03/22 00:41:04;;;;;;;22.50;11.57;;;;;;;0.69;100.00;96168.53;1032276;28;20541;-57
2021/03/22 00:41:34;;;;;;;25.55;12.68;;;;;;;0.70;100.00;96168.44;1024209;28;20082;-57
2021/03/22 00:42:06;;;;;;;22.63;11.88;;;;;;;0.71;100.00;96171.88;1036193;28;20056;-57
2021/03/22 00:42:37;;;;;;;22.25;11.45;;;;;;;0.69;100.00;96171.97;1020118;29;20023;-56
2021/03/22 00:43:08;;;;;;;23.25;11.35;;;;;;;0.68;100.00;96167.72;1024291;28;20022;-57
2021/03/22 00:43:39;;;;;;;23.35;11.32;;;;;;;0.70;100.00;96165.00;1032039;28;20026;-56
2021/03/22 00:44:09;;;;;;;19.77;11.90;;;;;;;0.73;100.00;96167.38;1032292;28;20015;-56
2021/03/22 00:44:40;;;;;;;21.52;11.85;;;;;;;0.72;100.00;96168.31;1023981;28;20019;-57
2021/03/22 00:45:12;;;;;;;23.75;12.45;;;;;;;0.65;100.00;96160.09;1031402;28;20026;-56
2021/03/22 00:45:43;;;;;;;24.85;12.00;;;;;;;0.69;100.00;96166.75;1035723;28;20018;-56
2021/03/22 00:46:14;;;;;;;23.52;12.45;;;;;;;0.70;100.00;96167.63;1032181;28;20388;-56
2021/03/22 00:46:44;;;;;;;22.27;10.90;;;;;;;0.71;100.00;96170.09;1027999;28;20112;-57
2021/03/22 00:47:15;;;;;;;23.20;11.82;;;;;;;0.71;100.00;96167.47;1020266;28;20030;-57
2021/03/22 00:47:46;;;;;;;18.48;11.10;;;;;;;0.70;100.00;96168.44;1028177;28;20103;-57
2021/03/22 00:48:17;;;;;;;22.80;11.70;;;;;;;0.71;100.00;96167.47;1020103;28;20011;-57
2021/03/22 00:48:48;;;;;;;21.60;11.70;;;;;;;0.69;100.00;96176.38;1027979;28;20019;-57
2021/03/22 00:49:19;;;;;;;19.63;11.65;;;;;;;0.68;100.00;96165.09;1024196;28;20094;-56
2021/03/22 00:49:49;;;;;;;23.15;12.10;;;;;;;0.70;100.00;96168.44;1036189;28;20017;-57
2021/03/22 00:50:34;;;;;;;21.17;11.90;;;;;;;0.70;100.00;96178.06;1024243;28;20027;-57
2021/03/22 00:51:06;;;;;;;25.50;11.88;;;;;;;0.68;100.00;96165.09;1036226;28;20224;-55
2021/03/22 00:51:37;;;;;;;25.58;12.45;;;;;;;0.69;100.00;96168.53;1028177;28;20029;-56
2021/03/22 00:52:10;;;;;;;25.27;11.90;;;;;;;0.71;100.00;96169.25;1024245;28;20039;-57
2021/03/22 00:52:42;;;;;;;24.00;12.23;;;;;;;0.69;100.00;96171.16;1040227;28;20108;-57
2021/03/22 00:53:13;;;;;;;22.05;11.32;;;;;;;0.69;100.00;96169.38;1031892;28;20554;-58
2021/03/22 00:53:45;;;;;;;22.42;12.25;;;;;;;0.70;100.00;96167.63;1027741;28;20039;-57
2021/03/22 00:54:15;;;;;;;28.02;12.35;;;;;;;0.72;100.00;96165.72;1028124;28;20011;-57
2021/03/22 00:54:47;;;;;;;24.55;12.25;;;;;;;0.72;100.00;96163.09;1020188;28;20195;-55
2021/03/22 00:55:18;;;;;;;22.90;12.35;;;;;;;0.72;100.00;96166.53;1032279;28;20030;-56
2021/03/22 00:55:49;;;;;;;20.65;11.70;;;;;;;0.69;100.00;96163.31;1032131;28;20026;-57
2021/03/22 00:56:19;;;;;;;24.20;12.45;;;;;;;0.62;100.00;96149.03;1028358;28;20019;-57
2021/03/22 00:56:50;;;;;;;25.30;12.20;;;;;;;0.72;100.00;96163.94;1032130;28;20077;-57
2021/03/22 00:57:21;;;;;;;23.70;12.68;;;;;;;0.72;100.00;96165.72;1024241;28;20495;-56
2021/03/22 00:57:52;;;;;;;23.52;12.65;;;;;;;0.71;100.00;96159.63;1024027;29;20583;-55
2021/03/22 00:58:22;;;;;;;22.75;11.93;;;;;;;0.72;100.00;96163.09;1028140;28;20472;-56
2021/03/22 00:58:53;;;;;;;26.42;13.27;;;;;;;0.70;100.00;96168.44;1024080;29;20028;-57
2021/03/22 00:59:24;;;;;;;22.88;11.90;;;;;;;0.71;100.00;96164.03;1028187;28;20062;-56
2021/03/22 00:59:54;;;;;;;26.35;12.52;;;;;;;0.70;100.00;96165.00;1032037;28;20038;-57
2021/03/22 01:00:35;;;;;;;27.42;12.98;;;;;;;0.69;100.00;96165.94;1024242;29;20385;-57
2021/03/22 01:01:06;;;;;;;21.13;12.38;;;;;;;0.70;100.00;96165.81;1028140;28;20019;-57
2021/03/22 01:01:37;;;;;;;25.17;13.25;;;;;;;0.71;100.00;96164.03;1016355;29;20478;-56
2021/03/22 01:02:07;;;;;;;26.05;12.88;;;;;;;0.70;100.00;96170.22;1032145;28;20546;-57
2021/03/22 01:02:38;;;;;;;24.83;12.80;;;;;;;0.73;100.00;96169.97;1036220;28;20085;-56
2021/03/22 01:03:13;;;;;;;22.73;12.20;;;;;;;0.71;100.00;96164.84;1028246;28;20510;-56
2021/03/22 01:03:44;;;;;;;25.95;12.68;;;;;;;0.71;100.00;96164.03;1027904;28;20022;-57
2021/03/22 01:04:14;;;;;;;22.80;11.65;;;;;;;0.66;100.00;96171.38;1028150;28;20018;-57
2021/03/22 01:04:45;;;;;;;25.70;13.75;;;;;;;0.69;100.00;96168.53;1028057;28;20441;-57
2021/03/22 01:05:16;;;;;;;28.33;13.13;;;;;;;0.64;100.00;96150.56;1031996;28;20101;-56
2021/03/22 01:05:47;;;;;;;24.60;12.80;;;;;;;0.70;100.00;96170.22;1028107;28;20069;-56
2021/03/22 01:06:17;;;;;;;24.90;12.82;;;;;;;0.71;100.00;96169.25;1036025;28;20028;-57
2021/03/22 01:06:48;;;;;;;25.17;12.50;;;;;;;0.73;100.00;96162.13;1032124;28;20018;-56
2021/03/22 01:07:19;;;;;;;22.88;12.70;;;;;;;0.65;100.00;96154.88;1028190;28;20043;-57
2021/03/22 01:07:50;;;;;;;25.02;12.98;;;;;;;0.72;100.00;96165.72;1032208;28;20023;-57
2021/03/22 01:08:22;;;;;;;23.58;12.43;;;;;;;0.75;100.00;96168.13;1032019;28;20018;-57
2021/03/22 01:08:53;;;;;;;30.83;13.23;;;;;;;0.60;100.00;96150.91;1024228;28;20037;-56
2021/03/22 01:09:24;;;;;;;27.40;13.25;;;;;;;0.68;100.00;96164.25;1028122;28;20033;-56
2021/03/22 01:09:54;;;;;;;22.27;12.77;;;;;;;0.67;100.00;96157.38;1024080;28;20381;-57
2021/03/22 01:10:26;;;;;;;25.05;13.63;;;;;;;0.69;100.00;96165.94;1028119;28;20038;-57
2021/03/22 01:10:59;;;;;;;24.70;13.73;;;;;;;0.68;100.00;96157.25;1028034;28;20413;-57
2021/03/22 01:11:30;;;;;;;27.00;13.27;;;;;;;0.69;100.00;96163.31;1028182;28;20492;-56
2021/03/22 01:12:00;;;;;;;27.50;13.00;;;;;;;0.68;100.00;96152.03;1032032;28;20030;-56
2021/03/22 01:12:31;;;;;;;27.88;13.73;;;;;;;0.68;100.00;96149.44;1027973;28;20062;-56
2021/03/22 01:13:03;;;;;;;21.10;12.32;;;;;;;0.70;100.00;96151.94;1032061;28;20025;-57
2021/03/22 01:13:36;;;;;;;23.42;13.38;;;;;;;0.69;100.00;96158.91;1035993;28;20029;-55
2021/03/22 01:14:07;;;;;;;21.95;12.57;;;;;;;0.62;100.00;96155.06;1032030;28;20088;-56
2021/03/22 01:14:38;;;;;;;28.30;13.48;;;;;;;0.64;100.00;96155.78;1028135;28;20090;-56
2021/03/22 01:15:09;;;;;;;28.67;14.00;;;;;;;0.61;100.00;96156.03;1028002;28;20081;-56
2021/03/22 01:15:40;;;;;;;27.88;14.10;;;;;;;0.64;100.00;96160.19;1032001;28;20033;-55
2021/03/22 01:16:11;;;;;;;23.02;12.02;;;;;;;0.65;100.00;96154.03;1032111;28;20029;-56
2021/03/22 01:16:42;;;;;;;25.92;13.88;;;;;;;0.67;100.00;96154.75;1031935;28;20106;-57
2021/03/22 01:17:13;;;;;;;27.35;13.38;;;;;;;0.68;100.00;96154.66;1028044;28;20599;-57
2021/03/22 01:17:43;;;;;;;23.30;12.85;;;;;;;0.70;100.00;96155.38;1032059;28;20025;-57
2021/03/22 01:18:15;;;;;;;24.45;13.80;;;;;;;0.68;100.00;96151.19;1023968;29;20043;-57
2021/03/22 01:18:49;;;;;;;22.35;12.25;;;;;;;0.68;100.00;96154.66;1023879;28;20019;-57
2021/03/22 01:19:23;;;;;;;22.42;12.77;;;;;;;0.65;100.00;96151.44;1024076;29;20058;-55
2021/03/22 01:19:54;;;;;;;29.52;13.00;;;;;;;0.68;100.00;96153.78;1029032;28;20106;-57
2021/03/22 01:20:36;;;;;;;28.42;12.95;;;;;;;0.68;100.00;96153.78;1028062;28;20547;-57
2021/03/22 01:21:07;;;;;;;26.15;13.70;;;;;;;0.66;100.00;96150.47;1020069;29;20036;-57
2021/03/22 01:21:40;;;;;;;27.33;13.45;;;;;;;0.68;100.00;96148.56;1027959;28;20029;-56
2021/03/22 01:22:11;;;;;;;24.83;12.95;;;;;;;0.66;100.00;96143.47;1028099;28;20411;-57
2021/03/22 01:22:42;;;;;;;27.13;13.27;;;;;;;0.67;100.00;96146.91;1024079;29;20031;-56
2021/03/22 01:23:13;;;;;;;26.92;13.13;;;;;;;0.68;100.00;96149.44;1031882;28;20034;-57
2021/03/22 01:23:44;;;;;;;25.65;12.70;;;;;;;0.57;100.00;96149.34;1031866;28;20061;-56
2021/03/22 01:24:17;;;;;;;24.52;12.70;;;;;;;0.61;100.00;96142.97;1032071;28;20065;-56
2021/03/22 01:24:47;;;;;;;27.25;13.23;;;;;;;0.61;100.00;96148.19;1023982;29;20023;-56
2021/03/22 01:25:18;;;;;;;23.90;13.05;;;;;;;0.64;100.00;96147.94;1027969;28;20508;-56
2021/03/22 01:25:49;;;;;;;23.17;12.40;;;;;;;0.64;100.00;96147.13;1032167;28;20022;-55
2021/03/22 01:26:23;;;;;;;28.20;14.07;;;;;;;0.64;100.00;96147.94;1028033;28;20026;-56
2021/03/22 01:26:56;;;;;;;27.75;13.55;;;;;;;0.67;100.00;96144.31;1028034;28;20031;-56
2021/03/22 01:27:27;;;;;;;29.55;13.07;;;;;;;0.67;100.00;96146.91;1031116;28;20030;-56
2021/03/22 01:27:58;;;;;;;31.58;14.75;;;;;;;0.60;100.00;96133.44;1030134;28;20560;-56
2021/03/22 01:28:28;;;;;;;27.75;14.15;;;;;;;0.66;100.00;96151.31;1031952;28;20069;-57
2021/03/22 01:29:00;;;;;;;24.02;12.18;;;;;;;0.65;100.00;96151.44;1031992;28;20029;-57
2021/03/22 01:29:33;;;;;;;27.50;12.98;;;;;;;0.61;100.00;96147.34;1028063;28;20023;-57
2021/03/22 01:30:15;;;;;;;24.23;13.05;;;;;;;0.62;100.00;96149.84;1032127;28;20106;-56
2021/03/22 01:30:50;;;;;;;25.98;12.55;;;;;;;0.63;100.00;96143.69;1036132;28;20017;-56
2021/03/22 01:31:21;;;;;;;25.70;13.27;;;;;;;0.63;100.00;96140.22;1036048;28;20018;-57
2021/03/22 01:31:54;;;;;;;26.17;13.15;;;;;;;0.67;100.00;96145.13;1020079;28;20078;-56
2021/03/22 01:32:25;;;;;;;26.55;12.80;;;;;;;0.68;100.00;96148.56;1028031;28;20026;-57
2021/03/22 01:32:59;;;;;;;26.42;13.90;;;;;;;0.67;100.00;96141.69;1031935;28;20117;-56
2021/03/22 01:33:35;;;;;;;23.65;12.68;;;;;;;0.69;100.00;96138.00;1027814;28;20395;-55
2021/03/22 01:34:06;;;;;;;24.70;13.50;;;;;;;0.67;100.00;96152.97;1028059;28;20015;-56
2021/03/22 01:34:37;;;;;;;25.27;13.15;;;;;;;0.70;100.00;96149.31;1032072;28;20026;-56
2021/03/22 01:35:09;;;;;;;25.77;13.35;;;;;;;0.73;100.00;96146.47;1027923;28;20019;-57
2021/03/22 01:35:49;;;;;;;24.13;12.45;;;;;;;0.72;100.00;96147.41;1032118;28;20029;-57
2021/03/22 01:36:24;;;;;;;29.25;13.20;;;;;;;0.72;100.00;96139.59;1028018;28;20560;-57
2021/03/22 01:36:56;;;;;;;24.80;12.88;;;;;;;0.71;100.00;96145.75;1028020;28;20026;-57
2021/03/22 01:37:27;;;;;;;26.13;13.00;;;;;;;0.72;100.00;96150.03;1032003;28;20570;-55
2021/03/22 01:37:58;;;;;;;28.35;13.52;;;;;;;0.73;100.00;96144.69;1023874;29;20170;-56
2021/03/22 01:38:29;;;;;;;28.13;13.13;;;;;;;0.77;100.00;96145.31;1032021;28;20022;-56
2021/03/22 01:39:05;;;;;;;26.65;13.20;;;;;;;0.76;100.00;96146.25;1020024;29;20039;-56
2021/03/22 01:39:37;;;;;;;29.15;13.50;;;;;;;0.72;100.00;96150.84;1020031;28;20062;-56
2021/03/22 01:40:22;;;;;;;29.30;13.60;;;;;;;0.73;100.00;96147.31;1023951;28;20027;-56
2021/03/22 01:41:02;;;;;;;30.88;13.25;;;;;;;0.73;100.00;96147.31;1035033;28;20507;-57
2021/03/22 01:41:43;;;;;;;29.55;14.27;;;;;;;0.75;100.00;96145.41;1040130;28;20013;-56
2021/03/22 01:42:22;;;;;;;24.73;12.48;;;;;;;0.77;100.00;96141.84;1031985;28;20022;-56
2021/03/22 01:43:01;;;;;;;31.10;14.40;;;;;;;0.79;100.00;96140.81;1028012;28;20027;-57
2021/03/22 01:43:40;;;;;;;25.13;13.00;;;;;;;0.52;100.00;96101.81;1019893;29;20106;-56
2021/03/22 01:44:21;;;;;;;25.17;12.63;;;;;;;0.82;100.00;96148.44;1027454;28;20069;-57
2021/03/22 01:45:00;;;;;;;29.23;13.63;;;;;;;0.81;100.00;96138.09;1031743;28;20117;-56
2021/03/22 01:45:31;;;;;;;;;;;;;;;0.81;100.00;96144.13;1028494;28;20021;-56
2021/03/22 01:46:02;;;;;;;26.90;12.48;;;;;;;0.83;100.00;96138.81;1023960;28;19910;-57
2021/03/22 01:46:33;;;;;;;29.23;12.02;;;;;;;0.82;100.00;96140.59;1023889;28;20039;-57
2021/03/22 01:47:14;;;;;;;25.73;13.05;;;;;;;0.81;100.00;96143.31;1027933;28;20019;-57
2021/03/22 01:47:45;;;;;;;27.67;12.65;;;;;;;0.80;100.00;96142.47;1020048;29;20028;-56
2021/03/22 01:48:16;;;;;;;26.38;12.80;;;;;;;0.78;100.00;96135.69;1023930;28;20495;-56
2021/03/22 01:48:47;;;;;;;25.35;13.82;;;;;;;0.80;100.00;96144.25;1023927;29;20075;-56
2021/03/22 01:49:18;;;;;;;32.55;14.10;;;;;;;0.81;100.00;96138.91;1032035;28;20014;-56
2021/03/22 01:49:54;;;;;;;26.33;13.00;;;;;;;0.80;100.00;96142.47;1027798;28;20026;-56
2021/03/22 01:50:27;;;;;;;32.33;13.63;;;;;;;0.83;100.00;96130.97;1027945;28;20024;-57
2021/03/22 01:50:57;;;;;;;29.00;13.30;;;;;;;0.81;100.00;96131.06;1027943;28;20054;-56
2021/03/22 01:51:28;;;;;;;27.15;14.18;;;;;;;0.83;100.00;96144.03;1023955;28;20016;-56
2021/03/22 01:51:59;;;;;;;25.13;13.13;;;;;;;0.82;100.00;96134.50;1027857;28;20026;-56
2021/03/22 01:52:30;;;;;;;29.13;13.55;;;;;;;0.83;100.00;96134.41;1023941;28;20474;-57
2021/03/22 01:53:01;;;;;;;30.08;13.23;;;;;;;0.84;100.00;96133.47;1027909;28;20042;-54
2021/03/22 01:53:33;;;;;;;24.20;13.45;;;;;;;0.84;100.00;96133.47;1023812;28;20011;-56
2021/03/22 01:54:04;;;;;;;25.55;13.88;;;;;;;0.84;100.00;96132.63;1023762;29;20015;-56
2021/03/22 01:54:34;;;;;;;23.33;12.45;;;;;;;0.86;100.00;96128.13;1024048;29;20536;-56
2021/03/22 01:55:06;;;;;;;28.58;12.88;;;;;;;0.89;100.00;96135.75;1031950;28;20014;-57
2021/03/22 01:55:37;;;;;;;24.05;12.82;;;;;;;0.87;100.00;96128.03;1023982;29;20035;-57
2021/03/22 01:56:29;;;;;;;25.02;13.45;;;;;;;0.88;100.00;96131.47;1031870;28;20014;-57
2021/03/22 01:57:20;;;;;;;26.40;12.48;;;;;;;0.87;100.00;96130.63;1032103;28;20022;-56
2021/03/22 01:57:51;;;;;;;28.58;12.95;;;;;;;0.88;100.00;96124.44;1021661;28;20048;-55
2021/03/22 01:58:22;;;;;;;32.58;14.25;;;;;;;0.86;100.00;96135.97;1023792;29;20019;-56
2021/03/22 01:58:53;;;;;;;25.15;12.85;;;;;;;0.86;100.00;96128.94;1028057;28;20019;-56
2021/03/22 01:59:27;;;;;;;25.08;12.38;;;;;;;0.89;100.00;96135.75;1016071;28;20490;-57
2021/03/22 02:00:09;;;;;;;26.25;12.90;;;;;;;0.85;100.00;96122.03;1028007;28;20091;-56
2021/03/22 02:00:41;;;;;;;23.55;12.23;;;;;;;0.90;100.00;96122.53;1027912;28;20115;-56
2021/03/22 02:01:11;;;;;;;29.00;11.52;;;;;;;0.86;100.00;96128.94;1023966;28;20074;-56
2021/03/22 02:01:45;;;;;;;26.13;11.88;;;;;;;0.89;100.00;96131.34;1021816;29;20068;-56
2021/03/22 02:02:15;;;;;;;25.17;11.90;;;;;;;0.89;100.00;96127.91;1025651;28;20160;-56
2021/03/22 02:02:48;;;;;;;29.02;14.13;;;;;;;0.92;100.00;96132.88;1031903;28;20153;-55
2021/03/22 02:03:20;;;;;;;25.77;12.82;;;;;;;0.89;100.00;96133.97;1027914;28;20018;-56
2021/03/22 02:03:51;;;;;;;30.70;14.05;;;;;;;0.88;100.00;96134.06;1031993;28;20500;-56
2021/03/22 02:04:22;;;;;;;28.52;14.07;;;;;;;0.89;100.00;96126.13;1023344;28;20019;-57
2021/03/22 02:04:53;;;;;;;27.60;12.55;;;;;;;0.92;100.00;96133.75;1027822;28;20524;-57
2021/03/22 02:05:26;;;;;;;29.50;13.25;;;;;;;0.89;100.00;96130.53;1023914;28;20481;-57
2021/03/22 02:05:56;;;;;;;28.40;12.68;;;;;;;0.87;100.00;96128.03;1036045;28;20400;-57
2021/03/22 02:06:27;;;;;;;26.88;11.65;;;;;;;0.89;100.00;96125.31;1035985;28;20022;-57
2021/03/22 02:06:58;;;;;;;24.38;12.15;;;;;;;0.86;100.00;96120.28;1019938;29;20417;-56
2021/03/22 02:07:29;;;;;;;24.42;12.25;;;;;;;0.89;100.00;96133.13;1032024;28;20074;-57
2021/03/22 02:08:09;;;;;;;24.73;12.95;;;;;;;0.90;100.00;96132.19;1023981;28;20536;-57
2021/03/22 02:08:41;;;;;;;26.02;12.88;;;;;;;0.94;100.00;96131.84;1027888;28;20082;-57
2021/03/22 02:09:12;;;;;;;30.05;12.35;;;;;;;0.91;100.00;96126.84;1031905;28;20062;-56
2021/03/22 02:09:43;;;;;;;26.33;11.95;;;;;;;0.94;100.00;96128.38;1028034;28;20512;-56
2021/03/22 02:10:14;;;;;;;28.38;12.02;;;;;;;0.94;100.00;96124.00;1036010;28;20049;-56
2021/03/22 02:10:45;;;;;;;26.65;13.02;;;;;;;0.95;100.00;96127.44;1031928;28;20507;-56
2021/03/22 02:11:25;;;;;;;30.75;12.98;;;;;;;0.96;100.00;96131.75;1038252;28;20041;-55
2021/03/22 02:11:55;;;;;;;25.90;12.98;;;;;;;0.94;100.00;96128.38;1030530;28;20057;-56
2021/03/22 02:12:28;;;;;;;28.35;12.85;;;;;;;0.90;100.00;96129.56;1030566;28;20062;-56
2021/03/22 02:12:59;;;;;;;27.35;11.63;;;;;;;0.93;100.00;96130.16;1026337;28;20059;-55
2021/03/22 02:13:32;;;;;;;25.35;11.23;;;;;;;0.95;100.00;96135.28;1026478;28;20027;-55
2021/03/22 02:14:04;;;;;;;30.08;12.65;;;;;;;0.97;100.00;96132.56;1035196;28;20038;-55
2021/03/22 02:14:35;;;;;;;28.15;12.20;;;;;;;0.85;100.00;96126.44;1023105;28;20043;-56
2021/03/22 02:15:06;;;;;;;26.23;11.88;;;;;;;0.88;100.00;96140.13;1035099;28;20503;-55
2021/03/22 02:15:39;;;;;;;28.15;13.13;;;;;;;0.89;100.00;96133.97;1031425;28;20042;-56
2021/03/22 02:16:14;;;;;;;27.90;12.52;;;;;;;0.81;100.00;96131.06;1023339;28;20091;-56
2021/03/22 02:16:56;;;;;;;27.00;12.23;;;;;;;0.83;100.00;96129.16;1030640;28;20509;-57
2021/03/22 02:17:32;;;;;;;26.80;12.75;;;;;;;0.79;100.00;96126.91;1028055;28;20074;-57
2021/03/22 02:18:08;;;;;;;31.38;12.95;;;;;;;0.77;100.00;96137.47;1023952;29;20026;-57
2021/03/22 02:18:53;;;;;;;25.58;11.98;;;;;;;0.83;100.00;96133.56;1020003;29;20028;-56
2021/03/22 02:19:54;;;;;;;27.63;11.48;;;;;;;0.87;100.00;96135.88;1023878;28;20426;-57
2021/03/22 02:20:45;;;;;;;24.48;11.10;;;;;;;0.85;100.00;96129.06;1038044;28;20026;-56
2021/03/22 02:21:35;;;;;;;25.73;11.30;;;;;;;0.85;100.00;96135.13;1035703;28;20034;-56
2021/03/22 02:22:24;;;;;;;26.70;11.63;;;;;;;0.87;100.00;96138.47;1030587;28;20053;-57
2021/03/22 02:23:14;;;;;;;33.25;12.10;;;;;;;0.90;100.00;96140.84;1040025;28;20542;-56
2021/03/22 02:24:05;;;;;;;23.75;10.50;;;;;;;0.91;100.00;96139.09;1035680;28;20025;-56
2021/03/22 02:24:46;;;;;;;27.90;10.88;;;;;;;0.90;100.00;96140.84;1023750;28;20031;-57
2021/03/22 02:25:37;;;;;;;22.27;11.52;;;;;;;0.88;100.00;96147.16;1024004;28;20027;-57
2021/03/22 02:26:24;;;;;;;29.92;11.73;;;;;;;0.88;100.00;96144.53;1024285;28;20061;-56
2021/03/22 02:27:09;;;;;;;28.30;11.98;;;;;;;0.87;100.00;96143.69;1030812;28;20022;-57
2021/03/22 02:27:56;;;;;;;28.20;10.77;;;;;;;0.90;100.00;96147.84;1031665;28;20121;-57
2021/03/22 02:28:40;;;;;;;25.42;10.73;;;;;;;0.85;100.00;96140.34;1031789;28;20027;-56
2021/03/22 02:29:29;;;;;;;30.80;11.93;;;;;;;0.86;100.00;96147.25;1028682;28;20077;-55
2021/03/22 02:30:20;;;;;;;26.38;10.35;;;;;;;0.87;100.00;96146.31;1023862;28;20158;-56
2021/03/22 02:31:03;;;;;;;28.40;9.73;;;;;;;0.87;100.00;96143.69;1025150;28;20030;-55
2021/03/22 02:31:53;;;;;;;26.77;11.45;;;;;;;0.83;100.00;96154.47;1024130;28;20046;-56
2021/03/22 02:32:33;;;;;;;25.58;10.73;;;;;;;0.75;100.00;96150.66;1024627;28;20015;-57
2021/03/22 02:33:25;;;;;;;21.13;9.95;;;;;;;0.79;100.00;96145.22;1039859;28;20025;-57